createdAt,value
2023-04-17T00:01:29.568Z,102672.06
2023-04-17T00:03:58.172Z,102668.25
2023-04-17T00:06:27.453Z,102672.56
2023-04-17T00:08:55.500Z,102667.25
2023-04-17T00:11:23.376Z,102672.09
2023-04-17T00:13:51.528Z,102676.69
2023-04-17T00:16:21.201Z,102673.09
2023-04-17T00:18:49.242Z,102678.03
2023-04-17T00:21:17.055Z,102676.06
2023-04-17T00:23:45.877Z,102679.94
2023-04-17T00:26:13.848Z,102679.78
2023-04-17T00:28:43.689Z,102682.25
2023-04-17T00:31:11.763Z,102680.03
2023-04-17T00:33:40.988Z,102680.19
2023-04-17T00:36:10.025Z,102678.28
2023-04-17T00:38:37.797Z,102681.38
2023-04-17T00:41:05.815Z,102676.94
2023-04-17T00:43:33.694Z,102679.41
2023-04-17T00:46:01.706Z,102674.59
2023-04-17T00:48:29.807Z,102673.97
2023-04-17T00:51:02.281Z,102678.56
2023-04-17T00:53:30.245Z,102676.22
2023-04-17T00:55:59.532Z,102682.50
2023-04-17T00:58:28.403Z,102675.09
2023-04-17T01:00:56.591Z,102674.72
2023-04-17T01:03:25.230Z,102677.06
2023-04-17T01:05:53.332Z,102677.19
2023-04-17T01:08:23.726Z,102676.31
2023-04-17T01:10:53.213Z,102679.06
2023-04-17T01:13:21.369Z,102683.38
2023-04-17T01:15:49.653Z,102685.13
2023-04-17T01:18:17.656Z,102682.91
2023-04-17T01:20:45.571Z,102689.47
2023-04-17T01:23:13.738Z,102691.94
2023-04-17T01:25:43.250Z,102685.03
2023-04-17T01:28:11.237Z,102695.44
2023-04-17T01:30:39.142Z,102692.47
2023-04-17T01:33:09.820Z,102696.03
2023-04-17T01:35:38.403Z,102695.56
2023-04-17T01:38:06.697Z,102693.19
2023-04-17T01:40:34.597Z,102691.22
2023-04-17T01:43:04.475Z,102687.88
2023-04-17T01:45:32.315Z,102697.53
2023-04-17T01:48:01.331Z,102694.44
2023-04-17T01:50:29.122Z,102695.94
2023-04-17T01:52:56.872Z,102692.56
2023-04-17T01:55:24.641Z,102693.69
2023-04-17T01:57:53.282Z,102696.53
2023-04-17T02:00:23.189Z,102698.53
2023-04-17T02:02:51.182Z,102692.19
2023-04-17T02:05:19.377Z,102695.91
2023-04-17T02:07:47.359Z,102701.72
2023-04-17T02:10:15.367Z,102708.66
2023-04-17T02:12:43.331Z,102702.84
2023-04-17T02:15:11.904Z,102706.06
2023-04-17T02:17:41.262Z,102705.06
2023-04-17T02:20:12.703Z,102704.84
2023-04-17T02:22:40.538Z,102702.34
2023-04-17T02:25:09.009Z,102702.72
2023-04-17T02:27:36.925Z,102706.84
2023-04-17T02:30:05.642Z,102710.31
2023-04-17T02:32:33.533Z,102705.13
2023-04-17T02:35:02.952Z,102699.53
2023-04-17T02:37:31.014Z,102700.50
2023-04-17T02:39:58.785Z,102699.28
2023-04-17T02:42:26.562Z,102704.88
2023-04-17T02:44:54.824Z,102700.16
2023-04-17T02:47:23.198Z,102694.44
2023-04-17T02:49:51.073Z,102696.44
2023-04-17T02:52:20.286Z,102701.25
2023-04-17T02:54:48.205Z,102700.53
2023-04-17T02:57:16.149Z,102697.81
2023-04-17T02:59:43.970Z,102698.66
2023-04-17T03:02:14.609Z,102696.94
2023-04-17T03:04:43.891Z,102697.56
2023-04-17T03:07:13.667Z,102697.66
2023-04-17T03:09:42.951Z,102698.53
2023-04-17T03:12:10.872Z,102702.97
2023-04-17T03:14:38.697Z,102704.09
2023-04-17T03:17:06.568Z,102705.97
2023-04-17T03:19:34.501Z,102709.94
2023-04-17T03:22:03.299Z,102706.09
2023-04-17T03:24:31.899Z,102708.56
2023-04-17T03:27:05.743Z,102704.97
2023-04-17T03:29:39.422Z,102711.31
2023-04-17T03:32:07.587Z,102707.09
2023-04-17T03:34:35.834Z,102705.22
2023-04-17T03:37:03.801Z,102710.16
2023-04-17T03:39:32.524Z,102719.13
2023-04-17T03:42:03.307Z,102710.41
2023-04-17T03:44:31.171Z,102717.75
2023-04-17T03:46:58.922Z,102717.25
2023-04-17T03:49:26.789Z,102723.69
2023-04-17T03:51:55.430Z,102724.53
2023-04-17T03:54:23.652Z,102718.47
2023-04-17T03:56:53.674Z,102717.13
2023-04-17T03:59:23.511Z,102733.72
2023-04-17T04:01:54.260Z,102715.25
2023-04-17T04:04:24.433Z,102717.22
2023-04-17T04:06:58.493Z,102722.06
2023-04-17T04:09:27.642Z,102719.34
2023-04-17T04:11:57.278Z,102718.47
2023-04-17T04:14:26.424Z,102719.59
2023-04-17T04:16:54.227Z,102720.22
2023-04-17T04:19:22.127Z,102721.56
2023-04-17T04:21:49.910Z,102727.41
2023-04-17T04:24:20.288Z,102724.69
2023-04-17T04:26:49.645Z,102730.25
2023-04-17T04:29:18.918Z,102739.41
2023-04-17T04:31:56.607Z,102727.66
2023-04-17T04:34:29.530Z,102738.31
2023-04-17T04:36:57.666Z,102732.00
2023-04-17T04:39:34.200Z,102745.88
2023-04-17T04:42:05.917Z,102746.31
2023-04-17T04:44:43.809Z,102744.22
2023-04-17T04:47:13.154Z,102749.34
2023-04-17T04:49:41.800Z,102752.41
2023-04-17T04:52:09.716Z,102749.47
2023-04-17T04:54:37.590Z,102749.69
2023-04-17T04:57:05.589Z,102754.28
2023-04-17T04:59:34.208Z,102753.41
2023-04-17T05:02:29.216Z,102749.97
2023-04-17T05:04:57.542Z,102761.06
2023-04-17T05:07:26.113Z,102757.56
2023-04-17T05:09:54.374Z,102763.03
2023-04-17T05:12:22.494Z,102762.78
2023-04-17T05:14:50.353Z,102761.31
2023-04-17T05:17:20.302Z,102762.81
2023-04-17T05:19:49.516Z,102759.75
2023-04-17T05:22:17.533Z,102766.31
2023-04-17T05:25:00.054Z,102772.41
2023-04-17T05:27:28.087Z,102769.91
2023-04-17T05:29:56.900Z,102769.53
2023-04-17T05:32:24.698Z,102777.47
2023-04-17T05:34:58.243Z,102781.69
2023-04-17T05:37:28.306Z,102782.19
2023-04-17T05:39:56.988Z,102782.47
2023-04-17T05:42:24.723Z,102787.16
2023-04-17T05:44:52.492Z,102784.69
2023-04-17T05:47:20.408Z,102783.72
2023-04-17T05:49:51.180Z,102781.72
2023-04-17T05:52:20.456Z,102781.22
2023-04-17T05:54:49.531Z,102785.69
2023-04-17T05:57:18.034Z,102793.63
2023-04-17T05:59:46.230Z,102788.78
2023-04-17T06:02:14.936Z,102795.22
2023-04-17T06:04:43.158Z,102793.38
2023-04-17T06:07:11.791Z,102794.34
2023-04-17T06:09:41.290Z,102797.72
2023-04-17T06:12:15.941Z,102801.81
2023-04-17T06:14:45.656Z,102809.63
2023-04-17T06:17:14.931Z,102810.13
2023-04-17T06:19:43.193Z,102801.94
2023-04-17T06:22:10.960Z,102806.28
2023-04-17T06:24:40.049Z,102816.31
2023-04-17T06:27:07.821Z,102813.94
2023-04-17T06:29:35.656Z,102816.19
2023-04-17T06:32:04.989Z,102815.34
2023-04-17T06:34:33.138Z,102817.56
2023-04-17T06:37:01.056Z,102818.81
2023-04-17T06:39:28.833Z,102824.78
2023-04-17T06:41:58.249Z,102830.06
2023-04-17T06:44:28.607Z,102819.44
2023-04-17T06:46:56.589Z,102825.25
2023-04-17T06:49:24.826Z,102822.03
2023-04-17T06:51:52.729Z,102828.63
2023-04-17T06:54:20.484Z,102818.56
2023-04-17T06:56:48.270Z,102822.03
2023-04-17T06:59:17.899Z,102825.91
2023-04-17T07:01:46.076Z,102829.25
2023-04-17T07:04:14.017Z,102829.72
2023-04-17T07:06:41.890Z,102831.84
2023-04-17T07:09:10.023Z,102829.63
2023-04-17T07:11:37.759Z,102833.94
2023-04-17T07:14:05.914Z,102834.69
2023-04-17T07:16:34.997Z,102834.47
2023-04-17T07:19:02.865Z,102837.56
2023-04-17T07:21:30.757Z,102842.88
2023-04-17T07:23:58.571Z,102843.00
2023-04-17T07:26:26.561Z,102852.44
2023-04-17T07:28:54.268Z,102850.69
2023-04-17T07:31:22.513Z,102854.91
2023-04-17T07:33:52.061Z,102853.31
2023-04-17T07:36:19.831Z,102857.38
2023-04-17T07:38:48.105Z,102858.25
2023-04-17T07:41:15.803Z,102860.38
2023-04-17T07:43:43.619Z,102847.72
2023-04-17T07:46:11.404Z,102861.63
2023-04-17T07:48:40.571Z,102855.78
2023-04-17T07:51:09.713Z,102860.13
2023-04-17T07:53:38.588Z,102864.34
2023-04-17T07:56:07.328Z,102864.47
2023-04-17T07:58:36.370Z,102864.06
2023-04-17T08:01:05.419Z,102870.41
2023-04-17T08:03:33.563Z,102871.56
2023-04-17T08:06:01.486Z,102865.44
2023-04-17T08:08:30.809Z,102871.31
2023-04-17T08:10:58.809Z,102864.47
2023-04-17T08:13:27.343Z,102866.84
2023-04-17T08:15:55.619Z,102874.41
2023-04-17T08:18:23.335Z,102874.28
2023-04-17T08:20:51.248Z,102878.13
2023-04-17T08:23:19.074Z,102880.22
2023-04-17T08:25:48.702Z,102879.84
2023-04-17T08:28:16.898Z,102882.69
2023-04-17T08:30:44.757Z,102882.31
2023-04-17T08:33:16.888Z,102880.31
2023-04-17T08:35:44.998Z,102875.56
2023-04-17T08:38:14.686Z,102875.47
2023-04-17T08:40:46.835Z,102877.94
2023-04-17T08:43:19.628Z,102881.28
2023-04-17T08:45:52.960Z,102884.63
2023-04-17T08:48:20.915Z,102886.94
2023-04-17T08:50:50.599Z,102895.09
2023-04-17T08:53:19.384Z,102888.50
2023-04-17T08:55:48.505Z,102886.47
2023-04-17T08:58:17.927Z,102886.81
2023-04-17T09:00:46.540Z,102886.03
2023-04-17T09:03:15.755Z,102882.44
2023-04-17T09:05:46.263Z,102879.34
2023-04-17T09:08:16.077Z,102888.31
2023-04-17T09:10:45.758Z,102883.03
2023-04-17T09:13:15.816Z,102890.00
2023-04-17T09:15:48.276Z,102889.19
2023-04-17T09:18:24.922Z,102881.78
2023-04-17T09:20:53.146Z,102882.53
2023-04-17T09:23:22.746Z,102896.09
2023-04-17T09:26:07.612Z,102890.16
2023-04-17T09:28:39.157Z,102887.81
2023-04-17T09:31:24.842Z,102890.81
2023-04-17T09:33:57.714Z,102890.78
2023-04-17T09:36:26.771Z,102889.69
2023-04-17T09:38:55.884Z,102883.72
2023-04-17T09:41:24.480Z,102885.66
2023-04-17T09:43:54.898Z,102888.19
2023-04-17T09:46:35.316Z,102890.13
2023-04-17T09:49:08.857Z,102889.50
2023-04-17T09:51:37.186Z,102889.50
2023-04-17T09:54:07.107Z,102894.31
2023-04-17T09:56:35.342Z,102889.38
2023-04-17T09:59:05.473Z,102887.56
2023-04-17T10:01:36.386Z,102879.38
2023-04-17T10:04:05.959Z,102895.28
2023-04-17T10:06:34.864Z,102891.72
2023-04-17T10:09:04.010Z,102887.34
2023-04-17T10:11:37.265Z,102883.78
2023-04-17T10:14:11.828Z,102896.91
2023-04-17T10:16:43.755Z,102893.78
2023-04-17T10:19:29.512Z,102893.94
2023-04-17T10:22:31.482Z,102886.09
2023-04-17T10:25:20.540Z,102884.22
2023-04-17T10:27:59.375Z,102891.22
2023-04-17T10:30:52.239Z,102883.28
2023-04-17T10:33:25.847Z,102884.75
2023-04-17T10:35:54.501Z,102882.19
2023-04-17T10:38:36.122Z,102882.31
2023-04-17T10:41:05.709Z,102878.19
2023-04-17T10:43:33.969Z,102873.81
2023-04-17T10:46:06.827Z,102877.63
2023-04-17T10:48:38.821Z,102875.50
2023-04-17T10:51:43.857Z,102873.94
2023-04-17T10:54:15.308Z,102878.63
2023-04-17T10:56:46.095Z,102879.41
2023-04-17T10:59:15.762Z,102878.25
2023-04-17T11:02:00.578Z,102882.88
2023-04-17T11:04:31.815Z,102879.72
2023-04-17T11:06:59.902Z,102880.31
2023-04-17T11:09:29.707Z,102875.25
2023-04-17T11:12:01.386Z,102874.81
2023-04-17T11:14:30.338Z,102879.00
2023-04-17T11:16:58.363Z,102871.66
2023-04-17T11:19:26.800Z,102875.84
2023-04-17T11:21:58.810Z,102868.03
2023-04-17T11:24:27.399Z,102872.22
2023-04-17T11:26:56.611Z,102875.84
2023-04-17T11:29:25.262Z,102876.25
2023-04-17T11:31:54.772Z,102870.94
2023-04-17T11:34:22.895Z,102882.31
2023-04-17T11:36:51.232Z,102877.41
2023-04-17T11:39:21.291Z,102878.28
2023-04-17T11:41:50.111Z,102875.78
2023-04-17T11:44:20.077Z,102876.53
2023-04-17T11:46:50.405Z,102875.94
2023-04-17T11:49:24.323Z,102873.47
2023-04-17T11:51:52.696Z,102870.41
2023-04-17T11:54:28.246Z,102875.03
2023-04-17T11:56:59.988Z,102872.88
2023-04-17T11:59:31.972Z,102873.56
2023-04-17T12:02:00.727Z,102871.69
2023-04-17T12:04:30.223Z,102873.75
2023-04-17T12:06:59.702Z,102872.88
2023-04-17T12:09:31.755Z,102873.91
2023-04-17T12:12:00.133Z,102865.66
2023-04-17T12:14:27.999Z,102884.56
2023-04-17T12:16:55.656Z,102877.78
2023-04-17T12:19:25.526Z,102862.00
2023-04-17T12:21:54.412Z,102861.50
2023-04-17T12:24:24.838Z,102857.56
2023-04-17T12:26:54.645Z,102854.59
2023-04-17T12:29:36.176Z,102857.88
2023-04-17T12:32:11.524Z,102856.63
2023-04-17T12:34:39.567Z,102856.53
2023-04-17T12:37:07.404Z,102863.50
2023-04-17T12:39:35.517Z,102859.88
2023-04-17T12:42:04.921Z,102866.63
2023-04-17T12:44:32.705Z,102858.31
2023-04-17T12:47:00.652Z,102851.13
2023-04-17T12:49:28.553Z,102854.91
2023-04-17T12:51:56.541Z,102848.63
2023-04-17T12:54:24.474Z,102846.94
2023-04-17T12:56:52.287Z,102843.72
2023-04-17T12:59:21.405Z,102850.94
2023-04-17T13:01:49.270Z,102847.66
2023-04-17T13:04:17.490Z,102846.25
2023-04-17T13:06:45.799Z,102845.28
2023-04-17T13:09:13.917Z,102834.97
2023-04-17T13:11:41.788Z,102837.41
2023-04-17T13:14:10.275Z,102839.16
2023-04-17T13:16:39.568Z,102838.53
2023-04-17T13:19:07.479Z,102841.91
2023-04-17T13:21:35.221Z,102840.56
2023-04-17T13:24:03.247Z,102834.97
2023-04-17T13:26:31.032Z,102848.03
2023-04-17T13:28:58.811Z,102845.47
2023-04-17T13:31:27.716Z,102838.81
2023-04-17T13:33:56.894Z,102822.97
2023-04-17T13:36:24.630Z,102832.81
2023-04-17T13:38:52.448Z,102829.59
2023-04-17T13:41:20.919Z,102830.63
2023-04-17T13:43:48.669Z,102831.50
2023-04-17T13:46:16.945Z,102828.78
2023-04-17T13:48:44.833Z,102815.88
2023-04-17T13:51:14.824Z,102819.38
2023-04-17T13:53:42.581Z,102813.53
2023-04-17T13:56:10.528Z,102814.03
2023-04-17T13:58:40.338Z,102812.47
2023-04-17T14:01:08.899Z,102809.31
2023-04-17T14:03:38.973Z,102805.22
2023-04-17T14:06:08.480Z,102805.06
2023-04-17T14:08:38.112Z,102813.22
2023-04-17T14:11:05.951Z,102801.53
2023-04-17T14:13:33.710Z,102797.03
2023-04-17T14:16:01.868Z,102801.19
2023-04-17T14:18:29.640Z,102792.91
2023-04-17T14:20:57.691Z,102800.72
2023-04-17T14:23:25.425Z,102790.16
2023-04-17T14:25:54.765Z,102791.56
2023-04-17T14:28:22.588Z,102788.09
2023-04-17T14:30:51.559Z,102785.31
2023-04-17T14:33:19.507Z,102786.38
2023-04-17T14:35:47.990Z,102786.72
2023-04-17T14:38:16.269Z,102777.06
2023-04-17T14:40:44.344Z,102783.28
2023-04-17T14:43:13.445Z,102781.72
2023-04-17T14:45:41.354Z,102779.16
2023-04-17T14:48:09.352Z,102771.72
2023-04-17T14:50:37.639Z,102766.22
2023-04-17T14:53:05.550Z,102766.72
2023-04-17T14:55:34.368Z,102772.06
2023-04-17T14:58:02.338Z,102773.44
2023-04-17T15:00:32.046Z,102775.16
2023-04-17T15:02:59.937Z,102768.94
2023-04-17T15:05:28.103Z,102770.84
2023-04-17T15:07:58.120Z,102778.09
2023-04-17T15:10:28.638Z,102777.59
2023-04-17T15:13:00.443Z,102779.16
2023-04-17T15:15:28.766Z,102776.03
2023-04-17T15:17:58.325Z,102772.72
2023-04-17T15:20:28.384Z,102780.66
2023-04-17T15:22:56.621Z,102777.06
2023-04-17T15:25:25.114Z,102776.16
2023-04-17T15:27:53.254Z,102780.31
2023-04-17T15:30:21.485Z,102773.09
2023-04-17T15:32:49.449Z,102776.00
2023-04-17T15:35:18.913Z,102774.47
2023-04-17T15:37:48.475Z,102787.59
2023-04-17T15:40:16.792Z,102777.25
2023-04-17T15:42:44.870Z,102782.91
2023-04-17T15:45:13.268Z,102786.19
2023-04-17T15:47:41.129Z,102776.88
2023-04-17T15:50:10.181Z,102779.66
2023-04-17T15:52:39.446Z,102775.84
2023-04-17T15:55:07.986Z,102795.88
2023-04-17T15:57:35.986Z,102783.09
2023-04-17T16:00:05.882Z,102783.75
2023-04-17T16:02:38.049Z,102778.59
2023-04-17T16:05:07.369Z,102781.19
2023-04-17T16:07:35.325Z,102786.53
2023-04-17T16:10:04.808Z,102777.72
2023-04-17T16:12:32.862Z,102782.72
2023-04-17T16:15:00.906Z,102772.84
2023-04-17T16:17:28.767Z,102779.19
2023-04-17T16:19:56.653Z,102771.94
2023-04-17T16:22:24.581Z,102775.81
2023-04-17T16:24:52.425Z,102772.59
2023-04-17T16:27:21.575Z,102770.16
2023-04-17T16:29:49.454Z,102774.94
2023-04-17T16:32:18.221Z,102776.97
2023-04-17T16:34:46.475Z,102775.63
2023-04-17T16:37:14.851Z,102763.41
2023-04-17T16:39:42.716Z,102769.44
2023-04-17T16:42:10.768Z,102771.34
2023-04-17T16:44:40.512Z,102770.81
2023-04-17T16:47:13.452Z,102764.78
2023-04-17T16:49:42.631Z,102771.81
2023-04-17T16:52:10.527Z,102772.13
2023-04-17T16:54:38.320Z,102776.59
2023-04-17T16:57:06.220Z,102773.97
2023-04-17T16:59:34.256Z,102776.50
2023-04-17T17:02:03.710Z,102771.41
2023-04-17T17:04:31.953Z,102770.69
2023-04-17T17:06:59.810Z,102777.72
2023-04-17T17:09:27.612Z,102775.97
2023-04-17T17:11:56.732Z,102770.38
2023-04-17T17:14:24.667Z,102776.13
2023-04-17T17:16:53.080Z,102776.41
2023-04-17T17:19:22.374Z,102782.78
2023-04-17T17:21:50.782Z,102778.31
2023-04-17T17:24:18.539Z,102788.94
2023-04-17T17:26:46.644Z,102793.34
2023-04-17T17:29:14.801Z,102788.41
2023-04-17T17:31:43.627Z,102785.09
2023-04-17T17:34:25.379Z,102794.09
2023-04-17T17:36:56.126Z,102798.19
2023-04-17T17:39:24.158Z,102793.88
2023-04-17T17:41:52.113Z,102798.50
2023-04-17T17:44:19.991Z,102801.22
2023-04-17T17:46:48.212Z,102797.47
2023-04-17T17:49:16.237Z,102805.00
2023-04-17T17:51:44.528Z,102807.59
2023-04-17T17:54:14.067Z,102809.81
2023-04-17T17:56:42.085Z,102805.97
2023-04-17T17:59:10.059Z,102806.84
2023-04-17T18:01:37.931Z,102801.66
2023-04-17T18:04:06.302Z,102810.84
2023-04-17T18:06:34.462Z,102809.16
2023-04-17T18:09:02.519Z,102803.41
2023-04-17T18:11:31.932Z,102816.91
2023-04-17T18:14:00.733Z,102812.97
2023-04-17T18:16:32.791Z,102812.53
2023-04-17T18:19:03.606Z,102810.84
2023-04-17T18:21:31.870Z,102814.16
2023-04-17T18:23:59.635Z,102808.78
2023-04-17T18:26:27.739Z,102815.59
2023-04-17T18:28:56.981Z,102815.16
2023-04-17T18:31:26.145Z,102808.53
2023-04-17T18:33:54.081Z,102813.38
2023-04-17T18:36:22.283Z,102803.22
2023-04-17T18:38:50.089Z,102811.34
2023-04-17T18:41:18.057Z,102813.25
2023-04-17T18:43:46.056Z,102813.00
2023-04-17T18:46:15.527Z,102809.94
2023-04-17T18:48:43.490Z,102814.19
2023-04-17T18:51:12.538Z,102816.34
2023-04-17T18:53:40.455Z,102814.91
2023-04-17T18:56:10.763Z,102822.72
2023-04-17T18:58:40.336Z,102825.59
2023-04-17T19:01:10.480Z,102828.19
2023-04-17T19:03:40.606Z,102826.63
2023-04-17T19:06:08.380Z,102831.84
2023-04-17T19:08:36.830Z,102833.13
2023-04-17T19:11:05.530Z,102838.19
2023-04-17T19:13:33.614Z,102837.94
2023-04-17T19:16:01.528Z,102839.81
2023-04-17T19:18:29.995Z,102837.22
2023-04-17T19:20:59.408Z,102846.19
2023-04-17T19:23:27.185Z,102851.09
2023-04-17T19:25:55.463Z,102846.31
2023-04-17T19:28:23.960Z,102851.66
2023-04-17T19:30:52.224Z,102851.38
2023-04-17T19:33:20.362Z,102846.47
2023-04-17T19:35:48.710Z,102858.63
2023-04-17T19:38:17.953Z,102849.97
2023-04-17T19:40:48.107Z,102852.53
2023-04-17T19:43:16.546Z,102861.94
2023-04-17T19:45:44.495Z,102865.16
2023-04-17T19:48:12.374Z,102864.88
2023-04-17T19:50:40.436Z,102865.13
2023-04-17T19:53:08.753Z,102868.91
2023-04-17T19:55:41.702Z,102871.66
2023-04-17T19:58:09.610Z,102869.19
2023-04-17T20:00:37.459Z,102877.13
2023-04-17T20:03:05.565Z,102882.91
2023-04-17T20:05:34.725Z,102880.72
2023-04-17T20:08:02.918Z,102881.88
2023-04-17T20:10:31.102Z,102885.91
2023-04-17T20:13:00.500Z,102893.72
2023-04-17T20:15:28.495Z,102894.44
2023-04-17T20:17:56.723Z,102893.25
2023-04-17T20:20:24.542Z,102896.81
2023-04-17T20:22:52.602Z,102899.75
2023-04-17T20:25:20.511Z,102902.47
2023-04-17T20:27:48.456Z,102902.06
2023-04-17T20:30:20.106Z,102901.94
2023-04-17T20:32:48.570Z,102909.72
2023-04-17T20:35:17.962Z,102906.97
2023-04-17T20:37:46.064Z,102906.09
2023-04-17T20:40:14.999Z,102903.31
2023-04-17T20:42:44.658Z,102917.88
2023-04-17T20:45:13.478Z,102916.63
2023-04-17T20:47:55.835Z,102913.56
2023-04-17T20:50:24.880Z,102918.28
2023-04-17T20:52:52.788Z,102925.34
2023-04-17T20:55:20.859Z,102926.94
2023-04-17T20:57:48.788Z,102933.31
2023-04-17T21:00:17.590Z,102928.66
2023-04-17T21:02:47.119Z,102928.66
2023-04-17T21:05:15.011Z,102935.75
2023-04-17T21:07:42.833Z,102930.38
2023-04-17T21:10:10.840Z,102932.53
2023-04-17T21:12:38.594Z,102924.03
2023-04-17T21:15:07.393Z,102929.66
2023-04-17T21:17:35.200Z,102926.03
2023-04-17T21:20:06.550Z,102924.56
2023-04-17T21:22:34.376Z,102923.28
2023-04-17T21:25:02.896Z,102936.50
2023-04-17T21:27:31.102Z,102924.00
2023-04-17T21:29:59.040Z,102927.44
2023-04-17T21:32:27.207Z,102930.06
2023-04-17T21:34:54.929Z,102936.16
2023-04-17T21:37:24.151Z,102935.41
2023-04-17T21:39:52.071Z,102933.81
2023-04-17T21:42:19.936Z,102933.81
2023-04-17T21:44:47.867Z,102928.88
2023-04-17T21:47:16.665Z,102933.50
2023-04-17T21:49:46.932Z,102939.72
2023-04-17T21:52:14.871Z,102937.38
2023-04-17T21:54:44.520Z,102943.00
2023-04-17T21:57:12.441Z,102938.81
2023-04-17T21:59:40.198Z,102942.66
2023-04-17T22:02:07.981Z,102940.69
2023-04-17T22:04:35.928Z,102939.94
2023-04-17T22:07:03.830Z,102947.44
2023-04-17T22:09:31.579Z,102937.16
2023-04-17T22:12:01.608Z,102943.78
2023-04-17T22:14:29.473Z,102946.34
2023-04-17T22:16:57.539Z,102947.19
2023-04-17T22:19:25.493Z,102938.56
2023-04-17T22:21:53.412Z,102941.09
2023-04-17T22:24:21.249Z,102946.25
2023-04-17T22:26:49.516Z,102940.94
2023-04-17T22:29:18.899Z,102944.94
2023-04-17T22:31:46.668Z,102941.22
2023-04-17T22:34:14.709Z,102941.22
2023-04-17T22:36:42.666Z,102942.88
2023-04-17T22:39:10.489Z,102936.34
2023-04-17T22:41:38.343Z,102937.94
2023-04-17T22:44:06.203Z,102945.28
2023-04-17T22:46:35.608Z,102939.34
2023-04-17T22:49:05.597Z,102942.31
2023-04-17T22:51:34.506Z,102945.94
2023-04-17T22:54:11.547Z,102939.59
2023-04-17T22:56:43.317Z,102936.28
2023-04-17T22:59:12.259Z,102938.25
2023-04-17T23:01:41.542Z,102945.50
2023-04-17T23:04:10.419Z,102941.75
2023-04-17T23:06:38.446Z,102937.16
2023-04-17T23:09:06.397Z,102932.72
2023-04-17T23:11:35.169Z,102933.00
2023-04-17T23:14:03.674Z,102921.19
2023-04-17T23:16:31.754Z,102926.66
2023-04-17T23:19:01.065Z,102926.91
2023-04-17T23:21:28.876Z,102919.59
2023-04-17T23:23:56.803Z,102918.97
2023-04-17T23:26:25.814Z,102920.13
2023-04-17T23:28:53.526Z,102920.50
2023-04-17T23:31:21.433Z,102926.22
2023-04-17T23:33:49.244Z,102925.50
2023-04-17T23:36:18.891Z,102928.16
2023-04-17T23:38:46.694Z,102926.78
2023-04-17T23:41:14.619Z,102933.50
2023-04-17T23:43:42.356Z,102931.53
2023-04-17T23:46:10.340Z,102940.38
2023-04-17T23:48:38.212Z,102947.44
2023-04-17T23:51:06.297Z,102943.38
2023-04-17T23:53:35.454Z,102929.94
2023-04-17T23:56:04.170Z,102938.31
2023-04-17T23:58:31.922Z,102938.94
